Time;durP1;ratioP1;P1;durP2;ratioP2;P2;SDS_P1;SDS_P2;PMS_P1;PMS_P2;Temp;Humidity;BMP_temperature;BMP_pressure;BME280_temperature;BME280_humidity;BME280_pressure;Samples;Min_cycle;Max_cycle;Signal;HPM_P1;HPM_P2
2023/06/04 00:00:08;;;;;;;6.87;3.20;;;;;;;18.91;100.00;101815.16;2086835;28;20241;-64
2023/06/04 00:01:08;;;;;;;9.97;3.43;;;;;;;18.86;100.00;101805.31;2088765;28;20207;-63
2023/06/04 00:02:10;;;;;;;12.00;3.90;;;;;;;18.96;100.00;101815.38;2088825;28;20442;-63
2023/06/04 00:03:10;;;;;;;5.80;3.30;;;;;;;18.98;100.00;101809.28;2085959;28;20200;-63
2023/06/04 00:04:11;;;;;;;4.30;3.00;;;;;;;18.92;100.00;101811.91;2082488;28;20459;-62
2023/06/04 00:05:11;;;;;;;7.77;3.40;;;;;;;18.06;100.00;101684.94;2089178;28;20219;-64
2023/06/04 00:06:12;;;;;;;9.60;3.60;;;;;;;18.83;100.00;101803.44;2088670;28;20180;-63
2023/06/04 00:07:12;;;;;;;7.47;3.17;;;;;;;18.79;100.00;101811.19;2080532;28;20189;-63
2023/06/04 00:08:13;;;;;;;7.10;3.10;;;;;;;18.75;100.00;101813.38;2080527;28;20204;-64
2023/06/04 00:09:13;;;;;;;8.67;3.13;;;;;;;18.70;100.00;101796.34;2086182;28;20266;-63
2023/06/04 00:10:13;;;;;;;4.90;2.70;;;;;;;18.68;100.00;101804.47;2084224;28;20173;-63
2023/06/04 00:11:14;;;;;;;8.50;3.23;;;;;;;18.62;100.00;101804.25;2084058;28;20192;-63
2023/06/04 00:12:15;;;;;;;5.30;2.87;;;;;;;18.60;100.00;101798.31;2086702;28;20183;-63
2023/06/04 00:13:16;;;;;;;7.23;3.00;;;;;;;18.66;100.00;101804.13;2080637;28;20187;-63
2023/06/04 00:14:16;;;;;;;9.30;2.90;;;;;;;18.66;100.00;101802.09;2080655;28;21113;-63
2023/06/04 00:15:17;;;;;;;5.73;3.20;;;;;;;18.64;100.00;101804.59;2080663;28;20184;-64
2023/06/04 00:16:17;;;;;;;8.37;3.23;;;;;;;18.58;100.00;101800.78;2087428;28;20196;-62
2023/06/04 00:17:18;;;;;;;5.83;3.10;;;;;;;18.62;100.00;101797.88;2082737;28;20181;-63
2023/06/04 00:18:18;;;;;;;6.30;3.00;;;;;;;18.63;100.00;101805.06;2085091;28;20282;-63
2023/06/04 00:19:18;;;;;;;10.37;3.83;;;;;;;18.66;100.00;101804.13;2085204;28;20177;-63
2023/06/04 00:20:19;;;;;;;6.03;2.70;;;;;;;18.65;100.00;101803.34;2079784;28;20696;-63
2023/06/04 00:21:20;;;;;;;7.63;3.50;;;;;;;18.68;100.00;101798.84;2080982;28;20169;-63
2023/06/04 00:22:20;;;;;;;5.23;3.10;;;;;;;18.70;100.00;101799.94;2088845;28;20180;-63
2023/06/04 00:23:20;;;;;;;8.70;3.10;;;;;;;18.71;100.00;101800.72;2081089;28;20560;-63
2023/06/04 00:24:21;;;;;;;7.10;3.10;;;;;;;18.66;100.00;101804.91;2080650;28;20177;-63
2023/06/04 00:25:21;;;;;;;8.80;2.90;;;;;;;18.65;100.00;101799.75;2086268;28;20196;-63
2023/06/04 00:26:22;;;;;;;5.50;3.10;;;;;;;18.69;100.00;101803.22;2084172;28;20588;-63
2023/06/04 00:27:22;;;;;;;6.67;3.77;;;;;;;18.71;100.00;101807.13;2080245;28;20177;-63
2023/06/04 00:28:23;;;;;;;9.97;3.40;;;;;;;18.69;100.00;101809.63;2082452;28;20679;-63
2023/06/04 00:29:23;;;;;;;7.23;3.10;;;;;;;18.65;100.00;101803.34;2087621;28;20230;-63
2023/06/04 00:30:23;;;;;;;5.63;2.90;;;;;;;18.63;100.00;101807.84;2080503;28;20263;-63
2023/06/04 00:31:24;;;;;;;6.47;2.93;;;;;;;18.43;100.00;101777.31;2079399;28;20197;-63
2023/06/04 00:32:25;;;;;;;6.57;2.83;;;;;;;18.64;100.00;101801.78;2079879;28;20192;-63
2023/06/04 00:33:25;;;;;;;6.40;2.67;;;;;;;18.59;100.00;101802.38;2080854;28;20197;-62
2023/06/04 00:34:25;;;;;;;5.87;3.00;;;;;;;18.61;100.00;101807.50;2080460;28;20201;-63
2023/06/04 00:35:26;;;;;;;5.97;3.03;;;;;;;18.63;100.00;101805.06;2080638;28;20512;-63
2023/06/04 00:36:26;;;;;;;6.43;2.90;;;;;;;18.65;100.00;101803.34;2080213;28;20177;-63
2023/06/04 00:37:28;;;;;;;7.30;3.20;;;;;;;17.90;100.00;101704.78;2080049;28;20187;-63
2023/06/04 00:38:28;;;;;;;6.07;2.90;;;;;;;18.48;100.00;101795.59;2080467;28;20772;-62
2023/06/04 00:39:29;;;;;;;8.47;3.17;;;;;;;18.38;100.00;101793.97;2080477;28;20848;-62
2023/06/04 00:40:30;;;;;;;6.07;2.87;;;;;;;18.03;100.00;101734.31;2080161;28;20234;-63
2023/06/04 00:41:30;;;;;;;3.23;2.57;;;;;;;18.47;100.00;101803.22;2080469;28;20293;-63
2023/06/04 00:42:31;;;;;;;7.93;3.40;;;;;;;18.49;100.00;101806.38;2080538;28;20276;-63
2023/06/04 00:43:32;;;;;;;5.87;3.03;;;;;;;18.11;100.00;101734.84;2084252;28;20188;-63
2023/06/04 00:44:33;;;;;;;5.93;3.17;;;;;;;18.50;100.00;101809.94;2086146;28;20165;-63
2023/06/04 00:45:34;;;;;;;9.30;3.07;;;;;;;18.41;100.00;101816.28;2082190;28;20431;-63
2023/06/04 00:46:37;;;;;;;7.93;3.00;;;;;;;18.47;100.00;101819.31;2088047;28;20773;-62
2023/06/04 00:47:37;;;;;;;10.03;3.37;;;;;;;18.23;100.00;101766.41;2079967;28;20200;-63
2023/06/04 00:48:38;;;;;;;6.73;3.30;;;;;;;18.59;100.00;101812.81;2079542;28;20436;-62
2023/06/04 00:49:39;;;;;;;7.20;3.50;;;;;;;17.81;100.00;101697.06;2087280;28;20195;-63
2023/06/04 00:50:39;;;;;;;9.13;3.30;;;;;;;18.37;100.00;101810.03;2088660;28;20684;-62
2023/06/04 00:51:40;;;;;;;9.40;3.70;;;;;;;18.46;100.00;101821.31;2084526;28;20231;-63
2023/06/04 00:52:41;;;;;;;9.23;3.80;;;;;;;18.55;100.00;101821.38;2083702;28;20180;-62
2023/06/04 00:53:41;;;;;;;12.73;4.20;;;;;;;18.49;100.00;101817.59;2086613;28;20184;-62
2023/06/04 00:54:42;;;;;;;9.20;4.23;;;;;;;18.45;100.00;101825.38;2081490;28;20214;-63
2023/06/04 00:55:42;;;;;;;8.90;4.07;;;;;;;18.37;100.00;101831.69;2088911;28;20184;-62
2023/06/04 00:56:44;;;;;;;10.40;3.67;;;;;;;18.43;100.00;101839.06;2079838;28;20220;-63
2023/06/04 00:57:44;;;;;;;13.67;4.60;;;;;;;18.39;100.00;101834.81;2087598;28;20195;-63
2023/06/04 00:58:46;;;;;;;15.67;4.40;;;;;;;18.22;100.00;101817.34;2082376;28;20979;-63
2023/06/04 00:59:46;;;;;;;15.20;4.47;;;;;;;18.34;100.00;101833.41;2085465;28;20217;-63
2023/06/04 01:00:47;;;;;;;15.83;4.40;;;;;;;18.31;100.00;101836.31;2084804;28;20486;-63
2023/06/04 01:01:55;;;;;;;9.33;4.50;;;;;;;18.29;100.00;101836.75;2082819;28;20185;-62
2023/06/04 01:03:02;;;;;;;8.10;3.80;;;;;;;18.23;100.00;101830.94;2086308;28;20164;-63
2023/06/04 01:04:04;;;;;;;9.63;3.87;;;;;;;18.20;100.00;101825.47;2080519;28;20399;-62
2023/06/04 01:05:05;;;;;;;7.77;3.57;;;;;;;18.18;100.00;101831.53;2080395;28;20503;-63
2023/06/04 01:06:30;;;;;;;7.27;3.67;;;;;;;18.18;100.00;101827.94;2082937;28;20913;-62
2023/06/04 01:07:30;;;;;;;11.93;3.50;;;;;;;17.21;100.00;101693.56;2088175;28;20657;-63
2023/06/04 01:08:31;;;;;;;7.83;3.37;;;;;;;18.08;100.00;101824.28;2087560;28;20805;-62
2023/06/04 01:09:32;;;;;;;6.73;3.37;;;;;;;17.40;100.00;101724.59;2080501;28;20174;-63
2023/06/04 01:10:32;;;;;;;11.17;3.20;;;;;;;18.08;100.00;101823.50;2080577;28;20356;-63
2023/06/04 01:11:38;;;;;;;6.57;3.60;;;;;;;18.04;100.00;101822.84;2087523;28;20947;-62
2023/06/04 01:12:40;;;;;;;10.00;3.93;;;;;;;17.83;100.00;101810.34;2082190;28;20676;-62
2023/06/04 01:13:40;;;;;;;10.57;3.40;;;;;;;17.00;100.00;101685.13;2080513;28;20717;-62
2023/06/04 01:14:41;;;;;;;7.70;3.10;;;;;;;17.85;100.00;101821.09;2084648;28;20503;-62
2023/06/04 01:15:42;;;;;;;9.13;3.33;;;;;;;17.84;100.00;101825.16;2088503;28;20192;-62
2023/06/04 01:17:11;;;;;;;9.20;3.30;;;;;;;17.88;100.00;101833.44;2085882;28;20191;-62
2023/06/04 01:18:29;;;;;;;9.67;3.30;;;;;;;17.91;100.00;101852.19;2085185;28;20191;-62
2023/06/04 01:19:42;;;;;;;6.10;3.20;;;;;;;17.91;100.00;101836.09;2084035;28;21016;-63
2023/06/04 01:20:46;;;;;;;7.63;3.03;;;;;;;17.88;100.00;101830.63;2082103;28;20490;-62
2023/06/04 01:21:51;;;;;;;5.07;3.17;;;;;;;17.10;100.00;101740.75;2082133;28;20441;-63
2023/06/04 01:22:51;;;;;;;5.27;3.10;;;;;;;17.77;100.00;101847.03;2081833;28;20947;-62
2023/06/04 01:23:58;;;;;;;7.87;3.10;;;;;;;17.73;100.00;101833.91;2081971;28;20764;-62
2023/06/04 01:25:03;;;;;;;8.67;3.30;;;;;;;17.55;100.00;101818.16;2082083;28;20286;-63
2023/06/04 01:26:04;;;;;;;5.30;3.00;;;;;;;17.68;100.00;101837.28;2082052;28;20430;-63
2023/06/04 01:27:06;;;;;;;6.97;2.77;;;;;;;17.68;100.00;101840.09;2081534;28;20470;-63
2023/06/04 01:28:11;;;;;;;5.67;2.97;;;;;;;17.68;100.00;101842.91;2081893;28;20432;-63
2023/06/04 01:29:12;;;;;;;5.17;2.93;;;;;;;17.66;100.00;101847.38;2081762;28;20427;-62
2023/06/04 01:30:13;;;;;;;6.23;2.80;;;;;;;17.59;100.00;101839.22;2081339;28;20478;-62
2023/06/04 01:31:13;;;;;;;6.37;2.87;;;;;;;17.59;100.00;101847.63;2081530;28;20430;-62
2023/06/04 01:32:15;;;;;;;6.33;3.00;;;;;;;17.65;100.00;101851.44;2088589;28;20223;-62
2023/06/04 01:33:18;;;;;;;5.10;2.80;;;;;;;17.60;100.00;101845.63;2090259;28;20195;-62
2023/06/04 01:34:18;;;;;;;6.00;2.43;;;;;;;17.57;100.00;101843.72;2085000;28;20855;-62
2023/06/04 01:35:20;;;;;;;9.23;2.90;;;;;;;16.50;100.00;101690.75;2081973;28;20460;-62
2023/06/04 01:36:20;;;;;;;9.87;3.20;;;;;;;17.45;100.00;101836.13;2089276;28;20287;-62
2023/06/04 01:37:21;;;;;;;7.83;3.03;;;;;;;17.47;100.00;101851.25;2087589;28;21035;-62
2023/06/04 01:38:21;;;;;;;6.13;2.63;;;;;;;17.29;100.00;101831.38;2081605;28;20681;-63
2023/06/04 01:39:22;;;;;;;6.60;3.10;;;;;;;17.49;100.00;101845.97;2081698;28;20184;-62
2023/06/04 01:40:23;;;;;;;6.73;2.90;;;;;;;17.52;100.00;101847.09;2084376;28;20191;-62
2023/06/04 01:41:24;;;;;;;7.60;3.00;;;;;;;17.52;100.00;101855.50;2089767;28;20238;-62
2023/06/04 01:42:24;;;;;;;5.30;2.70;;;;;;;17.55;100.00;101849.78;2089970;28;20517;-62
2023/06/04 01:43:25;;;;;;;6.97;3.20;;;;;;;17.57;100.00;101857.72;2086092;28;20189;-63
2023/06/04 01:44:25;;;;;;;5.03;2.70;;;;;;;17.52;100.00;101845.09;2084613;28;20199;-62
2023/06/04 01:45:27;;;;;;;6.00;2.73;;;;;;;17.50;100.00;101843.97;2088472;28;20245;-62
2023/06/04 01:46:27;;;;;;;7.23;2.83;;;;;;;17.46;100.00;101851.69;2082253;28;20180;-62
2023/06/04 01:47:28;;;;;;;4.70;2.50;;;;;;;17.49;100.00;101845.22;2090061;28;20916;-62
2023/06/04 01:48:29;;;;;;;5.87;2.50;;;;;;;17.48;100.00;101875.22;2082434;28;20645;-62
2023/06/04 01:49:29;;;;;;;6.20;2.80;;;;;;;16.83;100.00;101756.44;2088385;28;20195;-63
2023/06/04 01:50:30;;;;;;;4.27;2.50;;;;;;;17.42;100.00;101852.59;2089974;28;20521;-62
2023/06/04 01:51:32;;;;;;;4.60;2.40;;;;;;;17.49;100.00;101857.19;2086312;28;20196;-61
2023/06/04 01:52:32;;;;;;;4.83;2.10;;;;;;;17.54;100.00;101853.81;2084783;28;20183;-62
2023/06/04 01:53:33;;;;;;;7.33;2.60;;;;;;;17.51;100.00;101851.13;2088293;28;20414;-62
2023/06/04 01:54:33;;;;;;;5.50;2.50;;;;;;;17.50;100.00;101847.53;2081615;28;20206;-62
2023/06/04 01:55:34;;;;;;;5.20;2.60;;;;;;;17.36;100.00;101828.38;2082053;28;20215;-62
2023/06/04 01:56:34;;;;;;;3.97;2.50;;;;;;;17.52;100.00;101861.91;2081611;28;20293;-62
2023/06/04 01:57:36;;;;;;;4.13;2.37;;;;;;;17.46;100.00;101846.09;2081508;28;20652;-62
2023/06/04 01:58:36;;;;;;;5.20;2.23;;;;;;;17.57;100.00;101852.13;2086956;28;20188;-62
2023/06/04 01:59:38;;;;;;;5.03;2.33;;;;;;;17.52;100.00;101862.66;2090312;28;20942;-62
2023/06/04 02:00:39;;;;;;;5.63;2.80;;;;;;;17.54;100.00;101862.22;2089737;28;20195;-63
2023/06/04 02:01:39;;;;;;;6.80;2.60;;;;;;;17.51;100.00;101862.34;2087722;28;20433;-62
2023/06/04 02:02:42;;;;;;;6.67;2.67;;;;;;;17.45;100.00;101866.94;2081727;28;20180;-62
2023/06/04 02:03:42;;;;;;;5.03;2.70;;;;;;;17.34;100.00;101836.44;2081929;28;20192;-63
2023/06/04 02:04:44;;;;;;;4.50;2.10;;;;;;;17.56;100.00;101861.78;2090172;28;20512;-62
2023/06/04 02:05:46;;;;;;;5.27;2.47;;;;;;;17.58;100.00;101865.69;2082724;28;20569;-61
2023/06/04 02:06:48;;;;;;;6.23;2.40;;;;;;;17.45;100.00;101848.09;2089161;28;20478;-62
2023/06/04 02:07:49;;;;;;;5.63;2.43;;;;;;;17.63;100.00;101867.94;2084529;28;20830;-62
2023/06/04 02:08:49;;;;;;;4.97;2.37;;;;;;;17.60;100.00;101860.41;2081312;28;20427;-62
2023/06/04 02:09:49;;;;;;;5.40;2.20;;;;;;;17.31;100.00;101826.13;2084825;28;20188;-62
2023/06/04 02:10:50;;;;;;;4.50;2.37;;;;;;;17.45;100.00;101867.72;2088037;28;20679;-62
2023/06/04 02:11:50;;;;;;;10.30;2.30;;;;;;;17.46;100.00;101860.91;2082338;28;20181;-62
2023/06/04 02:12:59;;;;;;;4.33;2.50;;;;;;;17.53;100.00;101869.84;2090117;28;20193;-62
2023/06/04 02:13:59;;;;;;;5.17;2.57;;;;;;;17.56;100.00;101875.78;2089849;28;20195;-62
2023/06/04 02:15:00;;;;;;;4.83;2.33;;;;;;;17.58;100.00;101867.72;2089461;28;20433;-62
2023/06/04 02:16:00;;;;;;;5.37;2.50;;;;;;;17.06;100.00;101790.50;2089904;28;20186;-62
2023/06/04 02:17:01;;;;;;;3.53;2.20;;;;;;;17.62;100.00;101869.19;2089601;28;20188;-63
2023/06/04 02:18:21;;;;;;;5.97;2.40;;;;;;;16.76;100.00;101749.06;2085849;28;20662;-62
2023/06/04 02:19:21;;;;;;;5.70;2.40;;;;;;;17.58;100.00;101874.88;2081438;28;20192;-62
2023/06/04 02:20:21;;;;;;;6.63;2.70;;;;;;;17.58;100.00;101874.09;2081608;28;20945;-61
2023/06/04 02:21:22;;;;;;;4.00;2.27;;;;;;;17.60;100.00;101877.22;2081745;28;20622;-62
2023/06/04 02:22:22;;;;;;;7.10;2.50;;;;;;;17.60;100.00;101879.28;2081213;28;20594;-62
2023/06/04 02:23:23;;;;;;;6.20;2.20;;;;;;;17.58;100.00;101879.72;2082747;28;20642;-62
2023/06/04 02:24:23;;;;;;;5.03;2.20;;;;;;;17.60;100.00;101882.84;2090065;28;20623;-62
2023/06/04 02:25:24;;;;;;;7.00;2.40;;;;;;;17.62;100.00;101886.00;2081856;28;20425;-62
2023/06/04 02:26:24;;;;;;;6.17;2.60;;;;;;;17.60;100.00;101882.06;2081433;28;20549;-61
2023/06/04 02:27:25;;;;;;;5.43;2.33;;;;;;;16.46;100.00;101698.47;2081187;28;20641;-62
2023/06/04 02:28:26;;;;;;;5.37;2.37;;;;;;;17.62;100.00;101886.00;2081524;28;20196;-62
2023/06/04 02:29:26;;;;;;;7.40;2.30;;;;;;;17.60;100.00;101882.06;2084388;28;20258;-62
2023/06/04 02:30:26;;;;;;;6.47;2.20;;;;;;;17.60;100.00;101876.47;2087577;28;20184;-62
2023/06/04 02:31:27;;;;;;;6.30;2.20;;;;;;;17.57;100.00;101883.75;2081635;28;20180;-62
2023/06/04 02:32:28;;;;;;;4.33;2.23;;;;;;;17.59;100.00;101886.88;2081598;28;20651;-62
2023/06/04 02:33:29;;;;;;;3.70;2.00;;;;;;;17.07;100.00;101813.69;2081692;28;20170;-62
2023/06/04 02:34:29;;;;;;;6.33;2.17;;;;;;;16.85;100.00;101765.22;2088455;28;20495;-62
2023/06/04 02:35:31;;;;;;;4.20;1.80;;;;;;;17.58;100.00;101894.50;2083894;28;20181;-62
2023/06/04 02:36:31;;;;;;;5.33;2.40;;;;;;;17.55;100.00;101889.00;2081134;28;20626;-62
2023/06/04 02:37:31;;;;;;;5.80;2.30;;;;;;;17.48;100.00;101885.66;2084784;28;20496;-62
2023/06/04 02:38:33;;;;;;;4.53;2.10;;;;;;;17.51;100.00;101891.13;2087122;28;20180;-62
2023/06/04 02:39:33;;;;;;;5.27;2.30;;;;;;;17.53;100.00;101894.28;2083084;28;20180;-62
2023/06/04 02:40:34;;;;;;;6.67;2.47;;;;;;;17.57;100.00;101897.78;2089303;28;20980;-62
2023/06/04 02:41:34;;;;;;;8.20;2.50;;;;;;;17.46;100.00;101871.31;2089743;28;20231;-62
2023/06/04 02:42:35;;;;;;;6.83;2.97;;;;;;;17.58;100.00;101904.16;2082265;28;20259;-63
2023/06/04 02:43:36;;;;;;;4.33;2.17;;;;;;;16.57;100.00;101746.47;2087771;28;20192;-62
2023/06/04 02:44:37;;;;;;;4.43;2.10;;;;;;;17.59;100.00;101906.50;2084454;28;20190;-62
2023/06/04 02:45:37;;;;;;;3.93;2.20;;;;;;;17.44;100.00;101888.56;2081486;28;20428;-63
2023/06/04 02:46:38;;;;;;;4.20;2.30;;;;;;;17.65;100.00;101913.09;2080897;28;20288;-62
2023/06/04 02:47:38;;;;;;;5.23;2.20;;;;;;;17.63;100.00;101903.59;2081294;28;20266;-62
2023/06/04 02:48:39;;;;;;;3.53;1.87;;;;;;;17.68;100.00;101913.00;2080897;28;20182;-62
2023/06/04 02:49:39;;;;;;;3.13;2.00;;;;;;;17.42;100.00;101872.19;2081673;28;20179;-62
2023/06/04 02:50:42;;;;;;;3.90;2.20;;;;;;;17.70;100.00;101908.97;2088859;28;20211;-62
2023/06/04 02:51:43;;;;;;;6.10;2.20;;;;;;;17.70;100.00;101915.34;2089757;28;20569;-62
2023/06/04 02:52:44;;;;;;;5.60;2.10;;;;;;;17.56;100.00;101892.59;2083619;28;20425;-62
2023/06/04 02:53:45;;;;;;;6.00;1.90;;;;;;;17.62;100.00;101916.03;2081537;28;20454;-62
2023/06/04 02:54:45;;;;;;;4.43;2.10;;;;;;;17.61;100.00;101920.84;2081263;28;20628;-62
2023/06/04 02:55:46;;;;;;;4.83;2.20;;;;;;;17.66;100.00;101919.50;2081347;28;20428;-62
2023/06/04 02:56:48;;;;;;;4.40;2.10;;;;;;;17.70;100.00;101923.00;2082097;28;20201;-62
2023/06/04 02:57:51;;;;;;;6.70;2.33;;;;;;;17.51;100.00;101887.56;2089033;28;20168;-62
2023/06/04 02:58:53;;;;;;;3.37;2.23;;;;;;;17.31;100.00;101876.56;2080945;28;20418;-62
2023/06/04 02:59:55;;;;;;;6.67;2.27;;;;;;;17.59;100.00;101926.13;2081428;28;20428;-62
2023/06/04 03:00:55;;;;;;;6.43;2.17;;;;;;;17.63;100.00;101924.00;2081221;28;20449;-61
2023/06/04 03:01:56;;;;;;;5.20;2.07;;;;;;;17.61;100.00;101929.25;2087247;28;20425;-62
2023/06/04 03:03:01;;;;;;;5.53;2.00;;;;;;;17.58;100.00;101927.38;2084705;28;20199;-62
2023/06/04 03:04:04;;;;;;;6.93;2.33;;;;;;;17.61;100.00;101923.66;2081326;28;20175;-62
2023/06/04 03:05:05;;;;;;;4.50;2.10;;;;;;;17.61;100.00;101934.09;2081163;28;20558;-62
2023/06/04 03:06:05;;;;;;;4.77;2.10;;;;;;;17.61;100.00;101934.09;2083564;28;20477;-62
2023/06/04 03:07:07;;;;;;;4.23;2.13;;;;;;;17.65;100.00;101935.53;2087617;28;20285;-62
2023/06/04 03:08:08;;;;;;;3.77;2.10;;;;;;;17.41;100.00;101917.50;2081415;28;20214;-62
2023/06/04 03:09:08;;;;;;;6.93;2.30;;;;;;;17.61;100.00;101946.06;2089425;28;20529;-62
2023/06/04 03:10:10;;;;;;;4.83;2.13;;;;;;;17.16;100.00;101900.66;2081902;28;20198;-62
2023/06/04 03:11:11;;;;;;;4.57;1.93;;;;;;;17.52;100.00;101943.19;2081204;28;20266;-62
2023/06/04 03:12:11;;;;;;;6.07;2.30;;;;;;;17.39;100.00;101933.97;2080979;28;20454;-62
2023/06/04 03:13:12;;;;;;;4.83;2.10;;;;;;;17.37;100.00;101945.59;2081118;28;20446;-61
2023/06/04 03:14:12;;;;;;;7.60;1.80;;;;;;;17.39;100.00;101941.63;2081187;28;20191;-62
2023/06/04 03:15:12;;;;;;;6.57;2.10;;;;;;;17.41;100.00;101945.53;2083071;28;20180;-63
2023/06/04 03:16:13;;;;;;;3.57;1.87;;;;;;;16.68;100.00;101836.50;2089204;28;20215;-62
2023/06/04 03:17:14;;;;;;;5.87;1.93;;;;;;;17.29;100.00;101935.84;2089078;28;20236;-62
2023/06/04 03:18:15;;;;;;;3.87;2.20;;;;;;;17.35;100.00;101947.28;2081284;28;20171;-62
2023/06/04 03:19:16;;;;;;;3.53;2.03;;;;;;;17.30;100.00;101950.63;2087647;28;20975;-63
2023/06/04 03:20:17;;;;;;;5.90;2.07;;;;;;;17.28;100.00;101953.09;2083368;28;20195;-62
2023/06/04 03:21:17;;;;;;;4.20;1.77;;;;;;;17.31;100.00;101955.03;2085669;28;20662;-63
2023/06/04 03:22:18;;;;;;;6.67;2.00;;;;;;;17.36;100.00;101960.06;2089040;28;20196;-61
2023/06/04 03:23:19;;;;;;;4.87;2.10;;;;;;;17.30;100.00;101950.63;2089431;28;20191;-62
2023/06/04 03:24:20;;;;;;;6.63;2.03;;;;;;;16.80;100.00;101881.31;2087858;28;20559;-61
2023/06/04 03:25:20;;;;;;;4.47;2.13;;;;;;;17.29;100.00;101957.47;2081325;28;20420;-63
2023/06/04 03:26:21;;;;;;;5.07;2.10;;;;;;;17.30;100.00;101965.44;2089372;28;20175;-62
2023/06/04 03:27:21;;;;;;;7.10;1.97;;;;;;;16.64;100.00;101872.22;2081638;28;20193;-62
2023/06/04 03:28:22;;;;;;;5.83;2.00;;;;;;;17.19;100.00;101966.97;2087219;28;20219;-62
2023/06/04 03:29:22;;;;;;;3.67;2.20;;;;;;;17.09;100.00;101960.47;2085214;28;20326;-62
2023/06/04 03:30:23;;;;;;;4.57;2.07;;;;;;;16.37;100.00;101866.97;2083587;28;20703;-63
2023/06/04 03:31:23;;;;;;;4.93;2.20;;;;;;;17.00;100.00;101962.38;2087587;28;20172;-63
2023/06/04 03:32:24;;;;;;;5.50;2.00;;;;;;;16.95;100.00;101958.06;2081389;28;20798;-62
2023/06/04 03:33:24;;;;;;;3.80;1.77;;;;;;;15.89;100.00;101804.78;2089608;28;20747;-61
2023/06/04 03:34:25;;;;;;;3.00;2.13;;;;;;;16.91;100.00;101971.38;2081632;28;20284;-62
2023/06/04 03:35:25;;;;;;;6.47;2.20;;;;;;;16.83;100.00;101957.25;2081043;28;20184;-62
2023/06/04 03:36:31;;;;;;;6.97;2.20;;;;;;;16.87;100.00;101969.94;2080975;28;20869;-62
2023/06/04 03:37:32;;;;;;;4.80;2.20;;;;;;;16.84;100.00;101966.00;2080603;28;20169;-62
2023/06/04 03:38:33;;;;;;;4.77;2.33;;;;;;;16.75;100.00;101974.25;2084468;28;20499;-63
2023/06/04 03:39:33;;;;;;;4.53;2.40;;;;;;;16.64;100.00;101959.75;2089154;28;20976;-62
2023/06/04 03:40:33;;;;;;;5.63;2.20;;;;;;;16.76;100.00;101970.22;2089021;28;20187;-62
2023/06/04 03:41:34;;;;;;;4.83;2.10;;;;;;;16.62;100.00;101977.47;2088422;28;20283;-62
2023/06/04 03:42:35;;;;;;;4.40;2.10;;;;;;;15.87;100.00;101879.88;2089268;28;20227;-61
2023/06/04 03:43:35;;;;;;;4.73;2.30;;;;;;;16.54;100.00;101976.88;2081748;28;20199;-62
2023/06/04 03:44:36;;;;;;;3.47;2.13;;;;;;;16.52;100.00;101982.09;2087383;28;20191;-62
2023/06/04 03:45:36;;;;;;;4.47;2.43;;;;;;;16.52;100.00;101982.91;2089691;28;20177;-62
2023/06/04 03:46:37;;;;;;;4.97;2.23;;;;;;;16.52;100.00;101979.28;2088958;28;20194;-62
2023/06/04 03:47:39;;;;;;;6.53;2.30;;;;;;;16.55;100.00;101984.78;2085945;28;20185;-62
2023/06/04 03:48:41;;;;;;;3.13;2.33;;;;;;;15.69;100.00;101852.41;2080530;28;20181;-61
2023/06/04 03:49:41;;;;;;;5.43;2.30;;;;;;;16.61;100.00;101982.25;2081057;28;20947;-62
2023/06/04 03:50:42;;;;;;;5.37;2.20;;;;;;;16.57;100.00;101984.34;2080782;28;20791;-62
2023/06/04 03:51:43;;;;;;;5.37;2.50;;;;;;;16.54;100.00;101988.81;2081201;28;20277;-62
2023/06/04 03:52:43;;;;;;;4.37;2.30;;;;;;;16.49;100.00;101983.00;2080921;28;20177;-62
2023/06/04 03:53:44;;;;;;;3.73;2.10;;;;;;;16.42;100.00;101971.97;2087177;28;20196;-62
2023/06/04 03:54:44;;;;;;;5.77;2.60;;;;;;;16.40;100.00;101980.03;2089024;28;20180;-62
2023/06/04 03:55:44;;;;;;;4.57;2.47;;;;;;;16.35;100.00;101988.94;2085288;28;20231;-62
2023/06/04 03:56:46;;;;;;;3.07;2.20;;;;;;;16.38;100.00;101982.44;2079298;28;20206;-62
2023/06/04 03:57:46;;;;;;;3.40;2.30;;;;;;;16.32;100.00;101982.19;2082020;28;20188;-61
2023/06/04 03:58:47;;;;;;;5.27;2.37;;;;;;;16.42;100.00;101989.56;2088136;28;20406;-62
2023/06/04 03:59:47;;;;;;;5.67;2.47;;;;;;;16.46;100.00;101989.47;2081279;28;20169;-62
2023/06/04 04:00:48;;;;;;;4.50;2.00;;;;;;;16.38;100.00;101974.03;2080933;28;20205;-62
2023/06/04 04:01:48;;;;;;;4.10;2.30;;;;;;;16.42;100.00;101997.94;2080775;28;20231;-61
2023/06/04 04:02:49;;;;;;;4.00;2.40;;;;;;;16.45;100.00;101994.25;2080047;28;20181;-62
2023/06/04 04:03:51;;;;;;;8.93;2.47;;;;;;;16.07;100.00;101926.09;2084376;28;20184;-62
2023/06/04 04:04:54;;;;;;;4.50;2.50;;;;;;;16.53;100.00;101986.47;2085842;28;20650;-62
2023/06/04 04:05:54;;;;;;;6.13;2.13;;;;;;;16.47;100.00;101990.25;2083177;28;20432;-62
2023/06/04 04:06:54;;;;;;;4.23;2.17;;;;;;;16.53;100.00;101998.44;2088593;28;20426;-62
2023/06/04 04:07:55;;;;;;;3.93;2.20;;;;;;;16.59;100.00;101993.88;2089062;28;20257;-62
2023/06/04 04:08:55;;;;;;;5.57;2.50;;;;;;;16.50;100.00;101970.56;2080338;28;20185;-61
2023/06/04 04:09:56;;;;;;;5.43;2.57;;;;;;;16.46;100.00;101983.84;2080291;28;20181;-61
2023/06/04 04:10:57;;;;;;;5.67;2.70;;;;;;;16.50;100.00;101992.97;2079921;28;20693;-62
2023/06/04 04:11:57;;;;;;;3.33;2.30;;;;;;;16.53;100.00;101992.06;2081061;28;20175;-62
2023/06/04 04:12:58;;;;;;;4.03;2.10;;;;;;;16.46;100.00;101992.25;2080752;28;20443;-62
2023/06/04 04:13:58;;;;;;;6.03;2.37;;;;;;;15.91;100.00;101902.97;2080775;28;20180;-61
2023/06/04 04:14:59;;;;;;;4.53;2.40;;;;;;;16.51;100.00;101994.53;2082177;28;20179;-62
2023/06/04 04:15:59;;;;;;;6.03;2.03;;;;;;;16.42;100.00;101985.19;2088486;28;20269;-62
2023/06/04 04:17:00;;;;;;;5.43;2.20;;;;;;;16.43;100.00;101998.72;2080116;28;20209;-62
2023/06/04 04:18:01;;;;;;;8.53;2.60;;;;;;;16.39;100.00;102003.66;2080730;28;20187;-61
2023/06/04 04:19:01;;;;;;;5.60;2.27;;;;;;;16.37;100.00;102001.25;2080405;28;20662;-62
2023/06/04 04:20:05;;;;;;;3.43;2.40;;;;;;;16.38;100.00;102005.63;2080750;28;20864;-62
2023/06/04 04:21:05;;;;;;;3.77;2.30;;;;;;;16.37;100.00;102000.44;2085230;28;20683;-62
2023/06/04 04:22:06;;;;;;;6.83;2.53;;;;;;;16.35;100.00;102011.31;2085499;28;20802;-62
2023/06/04 04:23:08;;;;;;;4.47;1.90;;;;;;;16.32;100.00;102010.16;2082803;28;20212;-62
2023/06/04 04:24:09;;;;;;;3.97;2.27;;;;;;;16.23;100.00;102000.81;2087489;28;20586;-61
2023/06/04 04:25:09;;;;;;;3.67;2.40;;;;;;;16.21;100.00;102006.84;2080951;28;20424;-62
2023/06/04 04:26:10;;;;;;;4.93;2.43;;;;;;;16.27;100.00;102007.09;2089052;28;20592;-62
2023/06/04 04:27:15;;;;;;;5.33;2.30;;;;;;;15.54;100.00;101900.69;2081256;28;20176;-62
2023/06/04 04:28:17;;;;;;;5.13;2.30;;;;;;;16.20;100.00;102005.28;2087695;28;20613;-61
2023/06/04 04:29:17;;;;;;;5.33;2.40;;;;;;;16.23;100.00;102004.41;2082678;28;20568;-61
2023/06/04 04:30:18;;;;;;;5.40;2.30;;;;;;;16.22;100.00;102002.03;2085240;28;20446;-62
2023/06/04 04:31:18;;;;;;;4.07;2.07;;;;;;;16.18;100.00;102010.53;2089055;28;20267;-61
2023/06/04 04:32:19;;;;;;;8.10;2.10;;;;;;;16.17;100.00;102006.16;2086539;28;20622;-62
2023/06/04 04:33:19;;;;;;;6.30;2.20;;;;;;;16.16;100.00;102003.78;2080644;28;20178;-61
2023/06/04 04:34:21;;;;;;;3.33;2.10;;;;;;;16.22;100.00;102005.63;2080804;28;20259;-62
2023/06/04 04:35:23;;;;;;;5.63;2.37;;;;;;;16.23;100.00;102014.78;2088720;28;20829;-62
2023/06/04 04:36:24;;;;;;;2.97;1.90;;;;;;;16.24;100.00;102002.41;2081706;28;20431;-61
2023/06/04 04:37:24;;;;;;;2.80;1.90;;;;;;;16.25;100.00;102009.56;2086251;28;20525;-62
2023/06/04 04:38:25;;;;;;;5.23;1.93;;;;;;;15.34;100.00;101878.44;2083833;28;20178;-62
2023/06/04 04:39:25;;;;;;;5.93;2.20;;;;;;;16.28;100.00;102015.06;2080259;28;20188;-61
2023/06/04 04:40:26;;;;;;;3.20;2.27;;;;;;;16.32;100.00;102004.56;2083819;28;20226;-61
2023/06/04 04:41:27;;;;;;;5.47;1.93;;;;;;;16.39;100.00;102012.81;2087168;28;20308;-61